Lyndon, Kentucky
Current Conditions -  °F | °C
As of 9:53 AM on Monday 22 Dec 2014 (Local Time) from KLOU Reporting Station
Overcast Overcast  
Wind Chill: 45°   Ceiling: 3800
Heat Index: 45°   Visibility: 10mi
Dew Point: 35°   Wind: 3mph
Humidity: 68%   Direction: NA
Pressure: 29.96"   Gusts: NA
Location:  38.3046°N, 85.5795°W
Report Text: KLOU 221453Z VRB03KT 10SM OVC038 07/02 A2996 RMK AO2 SLP147 T00720017 58010
Loading
Personal Weather Stations






























Interactive Weather Map New forecast layout! Learn more

10-Day Weather Forecast

Advertisements
Track Severe Weather on mobile